Time;durP1;ratioP1;P1;durP2;ratioP2;P2;SDS_P1;SDS_P2;PMS_P1;PMS_P2;Temp;Humidity;BMP_temperature;BMP_pressure;BME280_temperature;BME280_humidity;BME280_pressure;Samples;Min_cycle;Max_cycle;Signal;HPM_P1;HPM_P2
2021/12/20 00:01:58;;;;;;;6.15;0.90;;;25.30;40.40;;;;;;5028577;28;20283;-60
2021/12/20 00:04:28;;;;;;;8.52;1.00;;;25.20;40.30;;;;;;5028840;28;20295;-60
2021/12/20 00:06:59;;;;;;;3.40;1.10;;;25.20;40.20;;;;;;5029507;28;20311;-59
2021/12/20 00:09:31;;;;;;;4.40;0.90;;;25.20;40.00;;;;;;5027780;28;20759;-53
2021/12/20 00:12:02;;;;;;;5.00;1.10;;;25.20;39.90;;;;;;5030171;28;20275;-60
2021/12/20 00:14:32;;;;;;;4.05;1.08;;;25.20;39.80;;;;;;5028881;28;20199;-50
2021/12/20 00:17:03;;;;;;;7.75;1.20;;;25.20;40.10;;;;;;5036446;28;20298;-59
2021/12/20 00:19:33;;;;;;;3.97;1.17;;;25.10;39.90;;;;;;5027152;28;20723;-54
2021/12/20 00:22:04;;;;;;;7.72;1.08;;;25.10;39.80;;;;;;5031752;28;20287;-60
2021/12/20 00:24:36;;;;;;;5.00;1.05;;;25.10;39.90;;;;;;5031523;28;20279;-49
2021/12/20 00:27:08;;;;;;;4.82;0.90;;;25.10;40.10;;;;;;5036179;28;20306;-48
2021/12/20 00:29:38;;;;;;;4.32;0.77;;;25.10;40.00;;;;;;5027267;28;20753;-49
2021/12/20 00:32:09;;;;;;;4.90;1.35;;;25.10;40.00;;;;;;5035918;28;20282;-43
2021/12/20 00:34:41;;;;;;;3.60;0.90;;;25.10;40.20;;;;;;5037607;28;20283;-41
2021/12/20 00:42:43;;;;;;;2.90;0.85;;;25.20;40.40;;;;;;5033097;28;20206;-60
2021/12/20 00:45:14;;;;;;;2.22;0.90;;;25.20;40.60;;;;;;5026548;28;20699;-55
2021/12/20 00:47:45;;;;;;;2.47;0.80;;;25.10;40.50;;;;;;5027465;28;20319;-56
2021/12/20 00:50:18;;;;;;;2.90;1.20;;;25.20;40.60;;;;;;5030927;28;20318;-59
2021/12/20 00:52:50;;;;;;;3.38;0.90;;;25.20;40.70;;;;;;5032783;28;20203;-53
2021/12/20 00:55:23;;;;;;;0.93;0.65;;;25.20;40.70;;;;;;5028226;28;20201;-57
2021/12/20 00:57:55;;;;;;;3.38;1.10;;;25.20;40.70;;;;;;5028488;28;20284;-51
2021/12/20 01:00:28;;;;;;;3.28;0.80;;;25.20;40.90;;;;;;5035168;28;20206;-53
2021/12/20 01:02:59;;;;;;;2.20;1.00;;;25.30;41.10;;;;;;5038824;28;20227;-57
2021/12/20 01:05:30;;;;;;;2.25;0.95;;;25.30;41.00;;;;;;5038868;28;20223;-59
2021/12/20 01:08:03;;;;;;;3.20;1.10;;;25.30;41.00;;;;;;5036816;28;20207;-59
2021/12/20 01:10:36;;;;;;;3.03;0.85;;;25.30;41.20;;;;;;5036262;28;20228;-48
2021/12/20 01:13:08;;;;;;;2.42;0.93;;;25.30;40.90;;;;;;5030783;28;20734;-53
2021/12/20 01:15:46;;;;;;;1.73;0.80;;;25.30;41.10;;;;;;5027588;28;20314;-54
2021/12/20 01:18:16;;;;;;;1.80;0.75;;;25.30;41.20;;;;;;5034833;28;20668;-51
2021/12/20 01:20:47;;;;;;;3.05;0.90;;;25.30;41.10;;;;;;5036876;28;20239;-43
2021/12/20 01:23:18;;;;;;;2.40;0.70;;;25.30;41.10;;;;;;5041489;28;20295;-59
2021/12/20 01:25:51;;;;;;;1.25;0.63;;;25.40;41.20;;;;;;5038014;28;20307;-48
2021/12/20 01:28:22;;;;;;;1.15;0.80;;;25.40;41.30;;;;;;5029072;28;20205;-56
2021/12/20 01:30:52;;;;;;;2.97;1.02;;;25.40;41.40;;;;;;5039029;28;20745;-46
2021/12/20 01:33:23;;;;;;;2.38;0.88;;;25.40;41.20;;;;;;5029198;28;20292;-59
2021/12/20 01:35:55;;;;;;;2.40;0.90;;;25.50;41.20;;;;;;5036322;28;20320;-59
2021/12/20 01:38:25;;;;;;;1.33;0.70;;;25.50;41.00;;;;;;5033286;28;20246;-56
2021/12/20 01:40:58;;;;;;;2.65;0.85;;;25.50;41.00;;;;;;5041922;28;20286;-49
2021/12/20 01:43:28;;;;;;;1.75;0.90;;;25.50;40.90;;;;;;5035719;28;20283;-56
2021/12/20 01:46:00;;;;;;;3.38;1.08;;;25.50;40.90;;;;;;5028431;28;20304;-59
2021/12/20 01:48:31;;;;;;;2.75;1.00;;;25.50;40.80;;;;;;5027813;28;20299;-57
2021/12/20 01:51:30;;;;;;;2.45;1.00;;;25.50;41.00;;;;;;5028062;28;20228;-59
2021/12/20 01:54:01;;;;;;;1.33;0.90;;;25.50;41.00;;;;;;5029315;28;20262;-59
2021/12/20 01:56:36;;;;;;;1.60;0.77;;;25.60;40.90;;;;;;5032171;28;20303;-58
2021/12/20 01:59:08;;;;;;;1.60;0.65;;;25.50;41.00;;;;;;5042012;28;20204;-55
2021/12/20 02:01:41;;;;;;;3.58;1.00;;;25.60;41.10;;;;;;5046915;28;20255;-53
2021/12/20 02:04:12;;;;;;;3.63;0.80;;;25.60;41.10;;;;;;5048948;28;20278;-58
2021/12/20 02:06:46;;;;;;;4.80;1.00;;;25.60;41.00;;;;;;5043496;28;20211;-55
2021/12/20 02:09:18;;;;;;;1.23;0.60;;;25.60;40.70;;;;;;5034138;28;20208;-55
2021/12/20 02:11:52;;;;;;;2.83;0.70;;;25.70;40.70;;;;;;5032456;28;20291;-46
2021/12/20 02:14:22;;;;;;;1.48;0.80;;;25.70;40.80;;;;;;5029482;28;20246;-53
2021/12/20 02:16:53;;;;;;;3.20;0.68;;;25.70;40.70;;;;;;5035871;28;20302;-52
2021/12/20 02:19:25;;;;;;;3.67;0.82;;;25.70;40.60;;;;;;5042619;28;20210;-58
2021/12/20 02:21:57;;;;;;;4.38;0.90;;;25.70;40.50;;;;;;5044524;28;21116;-55
2021/12/20 02:24:27;;;;;;;1.25;0.60;;;25.80;40.30;;;;;;5031381;28;20201;-59
2021/12/20 02:26:58;;;;;;;3.08;1.08;;;25.80;40.30;;;;;;5045158;28;20303;-59
2021/12/20 02:29:43;;;;;;;3.22;0.73;;;25.80;40.30;;;;;;5029510;28;20239;-59
2021/12/20 02:37:48;;;;;;;2.55;0.55;;;25.80;40.30;;;;;;5033254;28;20665;-57
2021/12/20 02:40:20;;;;;;;1.55;0.65;;;25.90;40.40;;;;;;5032715;28;20293;-46
2021/12/20 02:42:51;;;;;;;2.22;0.70;;;25.90;40.50;;;;;;5030599;28;20247;-59
2021/12/20 02:45:22;;;;;;;2.42;0.85;;;25.90;40.40;;;;;;5034789;28;20228;-59
2021/12/20 02:47:53;;;;;;;2.15;1.00;;;25.90;40.40;;;;;;5037363;28;20659;-41
2021/12/20 02:50:23;;;;;;;2.63;0.80;;;25.90;40.50;;;;;;5031562;28;20224;-40
2021/12/20 02:52:56;;;;;;;1.40;0.60;;;25.90;40.40;;;;;;5044908;28;20301;-58
2021/12/20 02:55:26;;;;;;;2.55;0.60;;;26.00;40.40;;;;;;5029392;28;20295;-55
2021/12/20 02:57:57;;;;;;;2.22;0.82;;;26.00;40.50;;;;;;5030983;28;20283;-45
2021/12/20 03:00:27;;;;;;;3.78;1.20;;;26.00;40.60;;;;;;5036878;28;20659;-56
2021/12/20 03:02:58;;;;;;;2.55;0.80;;;26.10;40.70;;;;;;5036913;28;20290;-48
2021/12/20 03:05:28;;;;;;;1.10;0.70;;;26.10;40.70;;;;;;5037858;28;20302;-55
2021/12/20 03:08:01;;;;;;;2.95;0.95;;;26.10;40.50;;;;;;5037961;28;20283;-51
2021/12/20 03:10:32;;;;;;;2.80;0.75;;;26.10;40.60;;;;;;5039905;28;20223;-59
2021/12/20 03:13:03;;;;;;;1.88;0.90;;;26.10;40.60;;;;;;5030657;28;20204;-55
2021/12/20 03:15:34;;;;;;;2.42;0.60;;;26.10;40.40;;;;;;5037143;28;20232;-53
2021/12/20 03:18:04;;;;;;;2.72;0.70;;;26.20;40.40;;;;;;5034830;28;20346;-58
2021/12/20 03:20:35;;;;;;;1.77;0.93;;;26.20;40.30;;;;;;5029245;28;20703;-40
2021/12/20 03:23:07;;;;;;;1.85;0.70;;;26.20;40.20;;;;;;5030931;28;20604;-42
2021/12/20 03:25:38;;;;;;;1.80;0.60;;;26.20;40.20;;;;;;5036767;28;20243;-40
2021/12/20 03:28:08;;;;;;;2.42;0.80;;;26.30;40.60;;;;;;5029926;28;20283;-52
2021/12/20 03:30:39;;;;;;;2.85;0.90;;;26.30;40.70;;;;;;5037142;28;20259;-59
2021/12/20 03:33:09;;;;;;;1.55;0.70;;;26.30;40.70;;;;;;5034506;28;20746;-59
2021/12/20 03:35:40;;;;;;;2.58;0.70;;;26.30;40.60;;;;;;5028585;28;20220;-55
2021/12/20 03:38:12;;;;;;;1.92;0.85;;;26.30;40.70;;;;;;5028325;28;20322;-56
2021/12/20 03:40:43;;;;;;;3.53;0.80;;;26.40;40.50;;;;;;5029195;28;20279;-59
2021/12/20 03:43:13;;;;;;;2.50;0.70;;;26.40;40.60;;;;;;5028154;28;20279;-57
2021/12/20 03:45:45;;;;;;;8.52;0.90;;;26.40;40.60;;;;;;5028935;28;20306;-56
2021/12/20 03:48:15;;;;;;;2.50;0.77;;;26.50;40.20;;;;;;5037198;28;20192;-57
2021/12/20 03:50:45;;;;;;;3.65;1.00;;;26.50;39.90;;;;;;5032032;28;20220;-54
2021/12/20 03:53:18;;;;;;;2.10;0.90;;;26.50;39.80;;;;;;5041219;28;20291;-60
2021/12/20 03:55:48;;;;;;;3.30;0.93;;;26.50;39.50;;;;;;5040949;28;20299;-50
2021/12/20 03:58:19;;;;;;;2.65;0.60;;;26.50;39.50;;;;;;5041682;28;20283;-53
2021/12/20 04:00:51;;;;;;;3.25;1.10;;;26.50;39.50;;;;;;5028421;28;20290;-59
2021/12/20 04:03:21;;;;;;;5.75;0.95;;;26.60;39.50;;;;;;5028807;28;20196;-56
2021/12/20 04:05:52;;;;;;;3.40;0.95;;;26.50;39.30;;;;;;5042690;28;20310;-59
2021/12/20 04:08:24;;;;;;;3.20;1.00;;;26.60;39.10;;;;;;5028641;28;21673;-60
2021/12/20 04:10:55;;;;;;;3.35;0.95;;;26.60;38.50;;;;;;5027042;28;20256;-61
2021/12/20 04:13:26;;;;;;;2.72;1.15;;;26.60;38.30;;;;;;5040945;28;20282;-60
2021/12/20 04:15:56;;;;;;;3.30;1.05;;;26.60;38.40;;;;;;5035236;28;20628;-58
2021/12/20 04:18:28;;;;;;;6.07;1.42;;;26.60;38.70;;;;;;5031471;28;20242;-61
2021/12/20 04:20:58;;;;;;;5.03;0.90;;;26.70;38.90;;;;;;5029800;28;20195;-61
2021/12/20 04:23:31;;;;;;;3.67;0.85;;;26.70;39.20;;;;;;5046084;28;20278;-60
2021/12/20 04:26:01;;;;;;;3.80;1.20;;;26.70;39.30;;;;;;5046104;28;20303;-59
2021/12/20 04:28:32;;;;;;;3.38;1.10;;;26.70;39.40;;;;;;5042154;28;20196;-57
2021/12/20 04:31:02;;;;;;;2.45;1.10;;;26.80;39.50;;;;;;5039579;28;20302;-59
2021/12/20 04:33:33;;;;;;;3.50;1.40;;;26.80;39.50;;;;;;5039249;28;20286;-50
2021/12/20 04:36:03;;;;;;;3.22;1.20;;;26.80;39.50;;;;;;5033288;28;20251;-61
2021/12/20 04:38:37;;;;;;;4.85;1.75;;;26.80;39.50;;;;;;5027640;28;20291;-44
2021/12/20 04:41:10;;;;;;;2.92;1.33;;;26.90;39.70;;;;;;5030415;28;20226;-50
2021/12/20 04:43:41;;;;;;;3.72;1.40;;;26.90;39.70;;;;;;5039329;28;20291;-48
2021/12/20 04:46:11;;;;;;;5.43;1.50;;;26.90;39.70;;;;;;5027729;28;20299;-40
2021/12/20 04:48:42;;;;;;;3.33;1.40;;;26.90;39.60;;;;;;5027823;28;20228;-45
2021/12/20 04:51:12;;;;;;;2.42;1.25;;;26.90;39.50;;;;;;5040089;28;20309;-48
2021/12/20 04:53:45;;;;;;;3.53;1.10;;;26.90;39.40;;;;;;5028572;28;20752;-61
2021/12/20 04:56:15;;;;;;;5.60;1.25;;;27.00;39.30;;;;;;5028455;28;20303;-54
2021/12/20 04:58:46;;;;;;;4.72;1.30;;;27.00;39.20;;;;;;5029317;28;20279;-60
2021/12/20 05:01:16;;;;;;;4.07;1.30;;;27.00;39.10;;;;;;5036412;28;20211;-58
2021/12/20 05:03:46;;;;;;;2.17;1.17;;;27.00;39.00;;;;;;5028113;28;20295;-50
2021/12/20 05:06:17;;;;;;;2.35;1.10;;;27.00;38.90;;;;;;5027929;28;20315;-48
2021/12/20 05:08:52;;;;;;;2.95;0.98;;;27.00;38.90;;;;;;5029571;28;20203;-49
2021/12/20 05:11:23;;;;;;;2.92;1.08;;;27.00;38.90;;;;;;5027082;28;20231;-52
2021/12/20 05:13:54;;;;;;;2.00;0.98;;;27.00;38.80;;;;;;5028059;28;20192;-52
2021/12/20 05:16:24;;;;;;;3.28;1.02;;;27.00;38.60;;;;;;5040668;28;20650;-53
2021/12/20 05:18:55;;;;;;;4.32;1.10;;;27.00;38.50;;;;;;5030522;28;20698;-52
2021/12/20 05:21:25;;;;;;;2.40;1.08;;;27.00;38.30;;;;;;5028722;28;20642;-51
2021/12/20 05:23:58;;;;;;;2.08;1.08;;;27.00;38.80;;;;;;5027429;28;21000;-54
2021/12/20 05:26:29;;;;;;;3.85;0.90;;;27.00;38.10;;;;;;5031599;28;20298;-58
2021/12/20 05:29:00;;;;;;;1.77;0.85;;;27.00;38.20;;;;;;5029529;28;20210;-54
2021/12/20 05:31:33;;;;;;;1.65;0.80;;;27.00;38.40;;;;;;5044582;28;20291;-48
2021/12/20 05:34:03;;;;;;;2.95;0.90;;;27.00;38.30;;;;;;5032008;28;20224;-53
2021/12/20 05:36:34;;;;;;;2.83;1.00;;;27.00;38.40;;;;;;5031911;28;20680;-50
2021/12/20 05:39:06;;;;;;;3.58;1.02;;;27.00;38.20;;;;;;5035572;28;20278;-50
2021/12/20 05:41:37;;;;;;;5.13;0.95;;;27.00;38.10;;;;;;5034925;28;20292;-47
2021/12/20 05:44:08;;;;;;;5.30;1.27;;;27.00;38.20;;;;;;5044335;28;20282;-54
2021/12/20 05:46:38;;;;;;;4.03;1.02;;;27.00;37.40;;;;;;5037120;28;20338;-54
2021/12/20 05:49:09;;;;;;;3.38;0.90;;;26.90;37.40;;;;;;5031761;28;20300;-56
2021/12/20 05:51:39;;;;;;;7.35;1.20;;;26.90;37.50;;;;;;5033967;28;20251;-56
2021/12/20 05:54:11;;;;;;;5.07;1.27;;;26.90;37.50;;;;;;5031221;28;20290;-56
2021/12/20 05:56:42;;;;;;;7.25;3.38;;;26.90;37.60;;;;;;5030786;28;20653;-56
2021/12/20 05:59:12;;;;;;;7.50;4.47;;;26.90;37.70;;;;;;5038667;28;20283;-57
2021/12/20 06:01:43;;;;;;;13.13;7.97;;;26.90;37.90;;;;;;5034484;28;20232;-55
2021/12/20 06:04:13;;;;;;;12.05;7.30;;;26.90;37.90;;;;;;5031477;28;20294;-56
2021/12/20 06:06:44;;;;;;;12.23;8.00;;;26.90;38.00;;;;;;5032771;28;20311;-57
2021/12/20 06:09:16;;;;;;;12.07;7.45;;;26.90;38.00;;;;;;5030467;28;20624;-57
2021/12/20 06:11:46;;;;;;;10.75;6.20;;;26.90;38.10;;;;;;5031335;28;20315;-57
2021/12/20 06:14:17;;;;;;;9.20;6.03;;;26.90;38.10;;;;;;5032877;28;20209;-57
2021/12/20 06:16:47;;;;;;;7.72;5.75;;;26.90;38.40;;;;;;5033315;28;20743;-56
2021/12/20 06:19:18;;;;;;;10.65;5.65;;;27.00;38.50;;;;;;5030056;28;20719;-57
2021/12/20 06:21:48;;;;;;;9.23;5.45;;;27.00;38.50;;;;;;5037386;28;20743;-57
2021/12/20 06:24:21;;;;;;;9.02;5.07;;;27.00;38.40;;;;;;5032151;28;20228;-56
2021/12/20 06:26:52;;;;;;;11.27;4.90;;;27.00;38.30;;;;;;5032202;28;20302;-55
2021/12/20 06:29:22;;;;;;;9.82;5.13;;;27.00;38.30;;;;;;5039603;28;20200;-53
2021/12/20 06:31:53;;;;;;;7.45;4.00;;;27.00;38.30;;;;;;5035432;28;20215;-55
2021/12/20 06:34:23;;;;;;;6.88;4.65;;;27.00;38.30;;;;;;5041858;28;20283;-55
2021/12/20 06:36:54;;;;;;;6.80;4.38;;;27.00;38.30;;;;;;5031998;28;20303;-51
2021/12/20 06:39:26;;;;;;;7.93;4.00;;;27.10;38.40;;;;;;5030510;28;20283;-51
2021/12/20 06:41:56;;;;;;;6.93;3.95;;;27.10;38.40;;;;;;5030185;28;20296;-57
2021/12/20 06:44:27;;;;;;;7.32;3.72;;;27.10;38.40;;;;;;5027866;28;20284;-52
2021/12/20 06:46:58;;;;;;;5.50;3.83;;;27.10;38.40;;;;;;5024759;28;20295;-53
2021/12/20 06:49:28;;;;;;;7.82;3.47;;;27.10;38.40;;;;;;5040384;28;20278;-54
2021/12/20 06:52:00;;;;;;;6.78;3.67;;;27.10;38.60;;;;;;5039386;28;20220;-46
2021/12/20 06:54:33;;;;;;;5.45;3.17;;;27.10;38.80;;;;;;5029209;28;20208;-58
2021/12/20 06:57:04;;;;;;;5.10;2.92;;;27.10;39.00;;;;;;5029956;28;20256;-56
2021/12/20 06:59:35;;;;;;;6.75;3.30;;;27.10;39.00;;;;;;5042546;28;20236;-55
2021/12/20 07:02:06;;;;;;;5.82;3.00;;;27.20;39.00;;;;;;5029580;28;20665;-52
2021/12/20 07:04:36;;;;;;;4.30;2.55;;;27.20;39.20;;;;;;5046507;28;20282;-56
2021/12/20 07:07:07;;;;;;;4.63;2.50;;;27.20;39.20;;;;;;5029782;28;20223;-53
2021/12/20 07:09:39;;;;;;;6.80;3.10;;;27.20;39.20;;;;;;5037829;28;20290;-55
2021/12/20 07:12:12;;;;;;;4.97;2.75;;;27.20;39.10;;;;;;5030001;28;20311;-54
2021/12/20 07:14:42;;;;;;;3.20;1.88;;;27.20;39.10;;;;;;5031486;28;20234;-54
2021/12/20 07:17:12;;;;;;;4.70;2.50;;;27.20;39.00;;;;;;5026868;28;20310;-57
2021/12/20 07:19:43;;;;;;;3.72;1.88;;;27.20;39.10;;;;;;5041274;28;20247;-55
2021/12/20 07:22:13;;;;;;;3.78;2.33;;;27.20;39.20;;;;;;5030289;28;20239;-46
2021/12/20 07:24:46;;;;;;;4.55;1.90;;;27.30;39.30;;;;;;5029566;28;20727;-58
2021/12/20 07:27:19;;;;;;;3.00;2.13;;;27.20;39.20;;;;;;5029489;28;20251;-52
2021/12/20 07:29:50;;;;;;;5.75;2.05;;;27.20;39.20;;;;;;5043073;28;20279;-57
2021/12/20 07:32:20;;;;;;;4.75;2.10;;;27.20;39.40;;;;;;5044872;28;20305;-57
2021/12/20 07:34:51;;;;;;;3.72;2.22;;;27.20;39.30;;;;;;5031520;28;20197;-52
2021/12/20 07:37:21;;;;;;;4.30;2.17;;;27.20;39.30;;;;;;5033397;28;20250;-53
2021/12/20 07:39:54;;;;;;;4.40;1.98;;;27.20;39.40;;;;;;5029539;28;20254;-49
2021/12/20 07:42:25;;;;;;;2.97;1.85;;;27.20;39.40;;;;;;5028592;28;20704;-53
2021/12/20 07:44:55;;;;;;;3.58;2.00;;;27.20;39.50;;;;;;5028996;28;20715;-55
2021/12/20 07:47:25;;;;;;;3.53;1.92;;;27.20;39.60;;;;;;5024027;28;20327;-56
2021/12/20 07:49:56;;;;;;;2.92;1.63;;;27.20;39.70;;;;;;5029018;28;20226;-49
2021/12/20 07:52:26;;;;;;;4.30;1.80;;;27.10;39.60;;;;;;5030432;28;20248;-51
2021/12/20 07:54:59;;;;;;;6.95;1.70;;;27.10;39.70;;;;;;5028808;28;20318;-60
2021/12/20 07:57:30;;;;;;;2.95;1.10;;;27.10;39.30;;;;;;5029109;28;20282;-51
2021/12/20 08:00:00;;;;;;;3.38;1.08;;;27.10;38.90;;;;;;5028957;28;20231;-49
2021/12/20 08:02:30;;;;;;;2.85;0.85;;;27.10;37.90;;;;;;5030033;28;20296;-48
2021/12/20 08:05:01;;;;;;;2.00;0.90;;;27.00;37.70;;;;;;5029355;28;20204;-57
2021/12/20 08:07:31;;;;;;;2.75;1.00;;;27.00;37.90;;;;;;5030508;28;20754;-57
2021/12/20 08:10:04;;;;;;;2.83;1.05;;;26.90;38.20;;;;;;5029732;28;20296;-49
2021/12/20 08:12:35;;;;;;;4.85;0.90;;;26.90;38.40;;;;;;5027804;28;20361;-55
2021/12/20 08:15:05;;;;;;;2.45;1.10;;;26.90;38.50;;;;;;5029190;28;20635;-47
2021/12/20 08:17:36;;;;;;;3.53;1.00;;;26.80;38.70;;;;;;5028798;28;20235;-42
2021/12/20 08:20:07;;;;;;;2.95;1.08;;;26.80;38.70;;;;;;5029808;28;20231;-41
2021/12/20 08:22:37;;;;;;;2.35;1.10;;;26.80;38.90;;;;;;5030409;28;20284;-40
2021/12/20 08:25:11;;;;;;;2.17;1.00;;;26.80;38.90;;;;;;5028598;28;20214;-48
2021/12/20 08:27:42;;;;;;;4.25;1.10;;;26.70;39.00;;;;;;5028286;28;20223;-54
2021/12/20 08:30:13;;;;;;;1.25;0.70;;;26.70;39.10;;;;;;5029539;28;20295;-39
2021/12/20 08:32:43;;;;;;;2.92;0.93;;;26.70;39.30;;;;;;5026388;28;20322;-46
2021/12/20 08:35:15;;;;;;;2.70;1.00;;;26.70;39.40;;;;;;5027681;28;20287;-47
2021/12/20 08:37:45;;;;;;;2.70;1.10;;;26.70;39.50;;;;;;5029306;28;20296;-45
2021/12/20 08:40:19;;;;;;;1.05;0.70;;;26.60;39.60;;;;;;5036142;28;20286;-40
2021/12/20 08:42:50;;;;;;;2.85;1.00;;;26.60;39.80;;;;;;5035626;28;20282;-44
2021/12/20 08:45:21;;;;;;;1.77;1.10;;;26.70;39.90;;;;;;5037003;28;20283;-47
2021/12/20 08:47:52;;;;;;;1.77;0.95;;;26.60;40.00;;;;;;5036429;28;20282;-53
2021/12/20 08:50:24;;;;;;;3.30;1.40;;;26.60;40.00;;;;;;5035170;28;20287;-48
2021/12/20 08:52:55;;;;;;;6.43;1.60;;;26.60;40.10;;;;;;5028209;28;20212;-49
2021/12/20 08:55:28;;;;;;;2.80;1.42;;;26.60;40.20;;;;;;5033583;28;20321;-55
2021/12/20 08:57:59;;;;;;;3.40;1.27;;;26.60;40.20;;;;;;5027016;28;20196;-52
2021/12/20 09:00:32;;;;;;;4.78;1.65;;;26.60;40.30;;;;;;5026423;28;20770;-47
2021/12/20 09:03:03;;;;;;;5.32;1.80;;;26.60;40.40;;;;;;5028559;28;20250;-54
2021/12/20 09:05:35;;;;;;;5.13;1.80;;;26.60;40.40;;;;;;5028614;28;20699;-54
2021/12/20 09:08:09;;;;;;;4.18;1.85;;;26.60;40.50;;;;;;5036812;28;20234;-54
2021/12/20 09:10:42;;;;;;;3.20;1.70;;;26.50;40.40;;;;;;5033808;28;20192;-57
2021/12/20 09:13:12;;;;;;;4.57;1.60;;;26.50;40.50;;;;;;5037160;28;20239;-55
2021/12/20 09:15:43;;;;;;;3.40;1.70;;;26.50;40.60;;;;;;5034878;28;20299;-57
2021/12/20 09:18:14;;;;;;;3.60;1.70;;;26.50;40.60;;;;;;5031765;28;20279;-54
2021/12/20 09:20:44;;;;;;;4.57;1.80;;;26.50;40.70;;;;;;5036634;28;20219;-52
2021/12/20 09:23:14;;;;;;;4.03;1.60;;;26.50;40.80;;;;;;5033051;28;20196;-56
2021/12/20 09:25:47;;;;;;;3.90;1.80;;;26.50;40.80;;;;;;5033132;28;20263;-56
2021/12/20 09:28:18;;;;;;;4.72;1.80;;;26.50;41.00;;;;;;5032537;28;20287;-49
2021/12/20 09:30:49;;;;;;;3.30;1.50;;;26.50;41.10;;;;;;5032246;28;20283;-40
2021/12/20 09:33:19;;;;;;;4.10;1.73;;;26.50;41.20;;;;;;5038349;28;20659;-38
2021/12/20 09:35:50;;;;;;;3.70;1.77;;;26.50;41.20;;;;;;5031148;28;20303;-45
2021/12/20 09:38:21;;;;;;;3.63;1.65;;;26.50;41.30;;;;;;5032769;28;20231;-41
2021/12/20 09:41:17;;;;;;;4.82;1.80;;;26.40;41.30;;;;;;5032845;28;20264;-38
2021/12/20 09:43:51;;;;;;;4.68;1.95;;;26.40;41.30;;;;;;5029866;28;20211;-40
2021/12/20 09:46:24;;;;;;;4.20;1.73;;;26.40;41.40;;;;;;5033236;28;20711;-38
2021/12/20 09:48:55;;;;;;;3.60;1.65;;;26.40;41.50;;;;;;5046692;28;20187;-38
2021/12/20 09:51:26;;;;;;;4.38;1.85;;;26.40;41.50;;;;;;5032481;28;20279;-52
2021/12/20 09:53:56;;;;;;;4.43;1.80;;;26.40;41.60;;;;;;5031429;28;20306;-41
2021/12/20 09:56:30;;;;;;;4.00;1.88;;;26.40;41.50;;;;;;5031365;28;20216;-54
2021/12/20 09:59:02;;;;;;;2.90;1.88;;;26.40;41.60;;;;;;5032590;28;20284;-57
2021/12/20 10:01:33;;;;;;;3.20;1.60;;;26.40;41.60;;;;;;5030848;28;20635;-58
2021/12/20 10:04:07;;;;;;;3.50;1.60;;;26.40;41.60;;;;;;5033199;28;20268;-58
2021/12/20 10:06:37;;;;;;;3.80;1.70;;;26.30;41.60;;;;;;5043992;28;20307;-58
2021/12/20 10:09:13;;;;;;;2.47;1.50;;;26.30;41.70;;;;;;5034915;28;20288;-54
2021/12/20 10:11:46;;;;;;;3.30;1.40;;;26.30;41.80;;;;;;5029945;28;20196;-51
2021/12/20 10:14:19;;;;;;;2.92;1.52;;;26.30;41.80;;;;;;5031089;28;20271;-57
2021/12/20 10:16:49;;;;;;;2.67;1.42;;;26.30;41.80;;;;;;5031434;28;20224;-57
2021/12/20 10:19:34;;;;;;;4.53;1.75;;;26.30;41.90;;;;;;5042036;28;20295;-54
2021/12/20 10:22:25;;;;;;;4.93;1.40;;;26.30;42.10;;;;;;5033655;28;20286;-55
2021/12/20 10:24:56;;;;;;;4.93;1.77;;;26.20;42.10;;;;;;5041668;28;20512;-57
2021/12/20 10:27:39;;;;;;;5.30;1.67;;;26.30;42.20;;;;;;5036464;28;20310;-42
2021/12/20 10:30:28;;;;;;;3.28;1.65;;;26.20;42.20;;;;;;5034007;28;20254;-39
2021/12/20 10:32:59;;;;;;;2.97;1.38;;;26.20;42.30;;;;;;5030517;28;20311;-48
2021/12/20 10:35:39;;;;;;;2.05;1.40;;;26.20;42.30;;;;;;5030324;28;20224;-39
2021/12/20 10:38:23;;;;;;;3.08;1.33;;;26.20;42.30;;;;;;5033385;28;20279;-40
2021/12/20 10:40:55;;;;;;;3.47;1.80;;;26.20;42.40;;;;;;5031649;28;20199;-50
2021/12/20 10:43:29;;;;;;;3.75;1.35;;;26.20;42.40;;;;;;5029782;28;20228;-57
2021/12/20 10:46:00;;;;;;;5.05;1.58;;;26.20;42.40;;;;;;5030014;28;20238;-57
2021/12/20 10:48:37;;;;;;;4.22;1.60;;;26.20;42.40;;;;;;5032089;28;20279;-57
2021/12/20 10:51:17;;;;;;;2.65;1.55;;;26.20;42.40;;;;;;5030134;28;20659;-53
2021/12/20 10:53:51;;;;;;;2.20;1.40;;;26.10;42.40;;;;;;5028418;28;20448;-54
2021/12/20 10:56:22;;;;;;;3.17;1.40;;;26.10;42.50;;;;;;5015812;28;20225;-55
2021/12/20 10:58:55;;;;;;;4.38;1.70;;;26.20;43.10;;;;;;5015878;28;20288;-58
2021/12/20 11:04:13;;;;;;;5.28;1.83;;;26.10;42.60;;;;;;5017239;28;20234;-57
2021/12/20 11:09:30;;;;;;;3.80;1.40;;;26.10;42.60;;;;;;5024065;28;20664;-55
2021/12/20 11:12:02;;;;;;;4.95;1.70;;;26.10;42.80;;;;;;5016606;28;20902;-54
2021/12/20 11:14:36;;;;;;;3.25;1.50;;;26.10;42.90;;;;;;5028493;28;20275;-58
2021/12/20 11:17:08;;;;;;;2.47;1.23;;;26.10;42.90;;;;;;5012507;28;20219;-58
2021/12/20 11:19:42;;;;;;;3.03;1.33;;;26.10;43.00;;;;;;5029279;28;20228;-58
2021/12/20 11:22:14;;;;;;;2.53;1.45;;;26.00;43.00;;;;;;5028468;28;20866;-58
2021/12/20 11:24:47;;;;;;;2.70;1.40;;;26.00;43.00;;;;;;5027934;28;20223;-50
2021/12/20 11:27:18;;;;;;;3.10;1.25;;;26.00;43.00;;;;;;5027384;28;20311;-57
2021/12/20 11:29:52;;;;;;;1.88;1.48;;;26.00;43.10;;;;;;5026333;28;20279;-58
2021/12/20 11:32:25;;;;;;;2.75;1.30;;;26.00;43.10;;;;;;5027013;28;20675;-58
2021/12/20 11:34:56;;;;;;;2.47;1.20;;;26.00;43.10;;;;;;5025377;28;20660;-54
2021/12/20 11:37:28;;;;;;;3.33;1.35;;;26.00;43.10;;;;;;5015915;28;20224;-54
2021/12/20 11:40:00;;;;;;;3.15;1.67;;;26.00;43.10;;;;;;5027574;28;20284;-57
2021/12/20 11:42:31;;;;;;;2.33;1.42;;;26.00;43.20;;;;;;5029248;28;20235;-56
2021/12/20 11:45:04;;;;;;;2.97;1.02;;;26.00;43.20;;;;;;5029408;28;20271;-54
2021/12/20 11:47:39;;;;;;;2.67;1.42;;;25.90;43.10;;;;;;5027150;28;20206;-49
2021/12/20 11:50:12;;;;;;;3.80;1.40;;;25.90;43.20;;;;;;5016140;28;20292;-55
2021/12/20 11:52:43;;;;;;;3.88;1.30;;;25.90;43.20;;;;;;5022862;28;20226;-58
2021/12/20 11:55:23;;;;;;;5.25;1.67;;;25.90;43.10;;;;;;5026275;28;20228;-58
2021/12/20 11:57:55;;;;;;;2.50;1.20;;;25.90;43.20;;;;;;5027436;28;20291;-48
2021/12/20 12:00:30;;;;;;;1.90;1.20;;;25.90;43.30;;;;;;5026423;28;20355;-49
2021/12/20 12:03:06;;;;;;;1.92;1.20;;;25.80;43.30;;;;;;5027322;28;20283;-47
2021/12/20 12:05:40;;;;;;;2.85;1.23;;;25.80;43.40;;;;;;5027672;28;20310;-53
2021/12/20 12:08:43;;;;;;;2.10;1.23;;;25.80;43.40;;;;;;5013006;28;20283;-52
2021/12/20 12:11:34;;;;;;;2.33;1.35;;;25.80;43.50;;;;;;4928188;29;20239;-47
2021/12/20 12:14:33;;;;;;;2.40;1.17;;;25.80;43.50;;;;;;4914519;29;20315;-45
2021/12/20 12:17:10;;;;;;;2.15;1.30;;;25.80;43.50;;;;;;5000306;28;20275;-49
2021/12/20 12:19:42;;;;;;;3.13;1.20;;;25.80;43.60;;;;;;5028800;28;20204;-54
2021/12/20 12:22:42;;;;;;;2.40;1.40;;;25.80;43.60;;;;;;5011584;28;20288;-43
2021/12/20 12:25:15;;;;;;;2.10;1.05;;;25.80;43.70;;;;;;5012517;28;20204;-57
2021/12/20 12:27:46;;;;;;;1.73;0.95;;;25.80;43.60;;;;;;5028866;28;20232;-48
2021/12/20 12:30:34;;;;;;;1.92;1.05;;;25.80;44.30;;;;;;5026945;28;20275;-54
2021/12/20 12:33:43;;;;;;;1.63;1.05;;;25.80;43.70;;;;;;5027382;28;20315;-48
2021/12/20 12:36:30;;;;;;;1.92;1.10;;;25.80;43.70;;;;;;5013775;28;20300;-44
2021/12/20 12:39:03;;;;;;;2.47;1.15;;;25.70;43.60;;;;;;5028158;28;20202;-53
2021/12/20 12:41:44;;;;;;;1.58;1.00;;;25.70;43.70;;;;;;5027315;28;20283;-53
2021/12/20 12:44:24;;;;;;;1.77;1.02;;;25.70;43.70;;;;;;5016795;28;20291;-56
2021/12/20 12:46:58;;;;;;;1.65;1.02;;;25.70;43.80;;;;;;5014023;28;20224;-58
2021/12/20 12:49:57;;;;;;;1.85;1.08;;;25.70;43.80;;;;;;5025059;28;20203;-57
2021/12/20 12:52:38;;;;;;;2.03;1.20;;;25.70;43.90;;;;;;5013900;28;20201;-57
2021/12/20 12:55:13;;;;;;;1.35;0.98;;;25.70;43.90;;;;;;5026994;28;20207;-53
2021/12/20 12:57:44;;;;;;;1.23;0.93;;;25.60;43.90;;;;;;5026934;28;20282;-58
2021/12/20 13:00:26;;;;;;;1.42;0.93;;;25.60;43.90;;;;;;5026319;28;20197;-55
2021/12/20 13:03:08;;;;;;;1.73;0.90;;;25.60;43.90;;;;;;5017463;28;20204;-57
2021/12/20 13:05:41;;;;;;;2.20;0.80;;;25.70;44.00;;;;;;5012132;28;20800;-55
2021/12/20 13:08:12;;;;;;;2.20;0.95;;;25.60;44.00;;;;;;5025319;28;20292;-58
2021/12/20 13:10:44;;;;;;;1.73;0.90;;;25.60;44.00;;;;;;5012697;28;20224;-58
2021/12/20 13:13:21;;;;;;;1.48;0.85;;;25.60;44.00;;;;;;5013899;28;20305;-57
2021/12/20 13:15:56;;;;;;;1.98;0.68;;;25.60;44.00;;;;;;5028193;28;20223;-58
2021/12/20 13:18:32;;;;;;;1.42;0.75;;;25.60;44.00;;;;;;5010699;28;20197;-55
2021/12/20 13:21:06;;;;;;;1.48;0.85;;;25.60;44.00;;;;;;5025174;28;20195;-56
2021/12/20 13:23:39;;;;;;;1.10;0.90;;;25.60;44.10;;;;;;5026667;28;20204;-56
2021/12/20 13:26:11;;;;;;;0.95;0.60;;;25.50;44.00;;;;;;5026804;28;20302;-58
2021/12/20 13:28:43;;;;;;;0.90;0.70;;;25.50;44.10;;;;;;5017841;28;20201;-54
2021/12/20 13:31:15;;;;;;;0.80;0.55;;;25.60;44.10;;;;;;5018526;28;20220;-58